Time;durP1;ratioP1;P1;durP2;ratioP2;P2;SDS_P1;SDS_P2;PMS_P1;PMS_P2;Temp;Humidity;BMP_temperature;BMP_pressure;BME280_temperature;BME280_humidity;BME280_pressure;Samples;Min_cycle;Max_cycle;Signal;HPM_P1;HPM_P2
2021/07/03 00:00:04;;;;;;;1.90;1.40;;;;;;;;;;5110066;28;20031;-69
2021/07/03 00:03:04;;;;;;;3.67;1.20;;;;;;;;;;5110742;27;20393;-70
2021/07/03 00:05:30;;;;;;;3.55;1.50;;;;;;;;;;5108792;28;20028;-69
2021/07/03 00:07:56;;;;;;;2.08;1.40;;;;;;;;;;5110374;28;20020;-69
2021/07/03 00:10:23;;;;;;;3.78;1.33;;;;;;;;;;5109055;28;20428;-69
2021/07/03 00:12:49;;;;;;;5.18;1.30;;;;;;;;;;5109969;28;20024;-69
2021/07/03 00:17:56;;;;;;;3.13;1.30;;;;;;;;;;5110494;27;20454;-69
2021/07/03 00:20:23;;;;;;;3.13;1.30;;;;;;;;;;5110067;28;20028;-69
2021/07/03 00:23:22;;;;;;;3.25;1.20;;;;;;;;;;5110797;27;20392;-69
2021/07/03 00:27:44;;;;;;;2.00;1.38;;;;;;;;;;5110098;27;20454;-69
2021/07/03 00:30:11;;;;;;;3.55;1.25;;;;;;;;;;5110441;28;20024;-69
2021/07/03 00:32:38;;;;;;;2.78;1.75;;;;;;;;;;5109069;28;20020;-69
2021/07/03 00:35:05;;;;;;;9.55;1.77;;;;;;;;;;5109976;28;20027;-69
2021/07/03 00:37:31;;;;;;;4.13;1.15;;;;;;;;;;5110239;28;20047;-69
2021/07/03 00:39:57;;;;;;;2.85;1.33;;;;;;;;;;5110353;28;20016;-70
2021/07/03 00:42:23;;;;;;;1.75;1.00;;;;;;;;;;5108591;28;20047;-70
2021/07/03 00:44:49;;;;;;;3.20;1.55;;;;;;;;;;5110359;28;20024;-69
2021/07/03 00:47:16;;;;;;;1.60;0.98;;;;;;;;;;5109658;28;20032;-69
2021/07/03 00:49:42;;;;;;;2.35;1.08;;;;;;;;;;5108808;28;20064;-70
2021/07/03 00:52:09;;;;;;;1.70;1.30;;;;;;;;;;5110015;28;20024;-70
2021/07/03 00:54:39;;;;;;;2.75;1.27;;;;;;;;;;5109636;28;20134;-70
2021/07/03 00:57:07;;;;;;;2.30;0.85;;;;;;;;;;5109955;28;20035;-70
2021/07/03 00:59:34;;;;;;;2.97;1.40;;;;;;;;;;5109946;28;20144;-69
2021/07/03 01:02:00;;;;;;;3.50;1.48;;;;;;;;;;5108314;28;20500;-70
2021/07/03 01:04:27;;;;;;;1.52;1.25;;;;;;;;;;5108731;28;20422;-70
2021/07/03 01:06:53;;;;;;;4.15;1.30;;;;;;;;;;5110021;28;20036;-70
2021/07/03 01:09:19;;;;;;;2.55;1.15;;;;;;;;;;5109402;28;20023;-70
2021/07/03 01:11:45;;;;;;;2.17;1.27;;;;;;;;;;5111103;28;20111;-70
2021/07/03 01:17:12;;;;;;;6.40;1.30;;;;;;;;;;5069615;28;20989;-70
2021/07/03 01:19:39;;;;;;;1.67;1.20;;;;;;;;;;5069988;28;20021;-69
2021/07/03 01:22:06;;;;;;;1.63;1.10;;;;;;;;;;5070137;28;20364;-69
2021/07/03 01:24:32;;;;;;;1.30;0.90;;;;;;;;;;5069615;28;20103;-69
2021/07/03 01:26:58;;;;;;;1.60;0.90;;;;;;;;;;5069725;28;20082;-69
2021/07/03 01:29:26;;;;;;;2.28;1.30;;;;;;;;;;5069301;28;20477;-69
2021/07/03 01:31:53;;;;;;;2.65;1.20;;;;;;;;;;5069618;28;20036;-69
2021/07/03 01:34:20;;;;;;;1.70;1.10;;;;;;;;;;5069657;28;20427;-69
2021/07/03 01:38:45;;;;;;;3.10;1.27;;;;;;;;;;5110075;27;20388;-69
2021/07/03 01:41:11;;;;;;;2.60;1.17;;;;;;;;;;5110558;28;20023;-69
2021/07/03 01:43:38;;;;;;;2.42;1.40;;;;;;;;;;5110216;28;20097;-69
2021/07/03 01:46:04;;;;;;;2.10;1.20;;;;;;;;;;5110483;28;20044;-69
2021/07/03 01:49:04;;;;;;;4.15;1.40;;;;;;;;;;5110731;27;20385;-69
2021/07/03 01:51:31;;;;;;;2.33;1.15;;;;;;;;;;5110049;28;20028;-69
2021/07/03 01:53:57;;;;;;;1.55;0.90;;;;;;;;;;5110414;28;20020;-69
2021/07/03 01:56:23;;;;;;;2.25;1.30;;;;;;;;;;5109118;28;20403;-69
2021/07/03 01:58:49;;;;;;;1.63;1.23;;;;;;;;;;5109922;28;20027;-69
2021/07/03 02:01:16;;;;;;;5.13;1.30;;;;;;;;;;5110342;28;20051;-69
2021/07/03 02:03:42;;;;;;;2.25;1.45;;;;;;;;;;5110472;28;20020;-69
2021/07/03 02:06:08;;;;;;;2.80;1.45;;;;;;;;;;5109900;28;20020;-69
2021/07/03 02:08:35;;;;;;;1.92;1.20;;;;;;;;;;5108750;28;20032;-69
2021/07/03 02:12:42;;;;;;;4.13;1.17;;;;;;;;;;5110178;27;20457;-69
2021/07/03 02:16:31;;;;;;;1.83;1.40;;;;;;;;;;5111137;27;20517;-69
2021/07/03 02:18:57;;;;;;;1.95;1.20;;;;;;;;;;5110115;28;20023;-69
2021/07/03 02:23:25;;;;;;;5.30;1.23;;;;;;;;;;5110782;27;20393;-69
2021/07/03 02:25:52;;;;;;;5.60;1.45;;;;;;;;;;5110217;28;20069;-69
2021/07/03 02:29:34;;;;;;;2.75;1.70;;;;;;;;;;5110206;27;20458;-69
2021/07/03 02:32:00;;;;;;;1.20;0.93;;;;;;;;;;5110397;28;20484;-68
2021/07/03 02:34:26;;;;;;;6.45;1.38;;;;;;;;;;5108648;28;20030;-69
2021/07/03 02:36:52;;;;;;;1.85;1.10;;;;;;;;;;5110398;28;20549;-69
2021/07/03 02:39:19;;;;;;;3.45;1.25;;;;;;;;;;5110603;28;20034;-69
2021/07/03 02:41:45;;;;;;;4.20;1.42;;;;;;;;;;5109927;28;20017;-69
2021/07/03 02:44:11;;;;;;;2.33;1.38;;;;;;;;;;5110428;28;20015;-69
2021/07/03 02:46:37;;;;;;;1.77;1.13;;;;;;;;;;5110185;28;20028;-69
2021/07/03 02:49:03;;;;;;;2.35;1.38;;;;;;;;;;5109676;28;20515;-69
2021/07/03 02:51:30;;;;;;;3.03;1.23;;;;;;;;;;5110123;28;20073;-69
2021/07/03 02:53:56;;;;;;;1.38;1.20;;;;;;;;;;5109627;28;20563;-69
2021/07/03 02:56:22;;;;;;;2.15;1.23;;;;;;;;;;5109916;28;20024;-69
2021/07/03 02:58:48;;;;;;;2.80;1.20;;;;;;;;;;5109983;28;20024;-69
2021/07/03 03:01:15;;;;;;;2.15;1.35;;;;;;;;;;5109543;28;20028;-69
2021/07/03 03:03:43;;;;;;;3.33;1.80;;;;;;;;;;5110082;28;20147;-69
2021/07/03 03:06:23;;;;;;;2.97;1.40;;;;;;;;;;5110567;27;20376;-70
2021/07/03 03:08:49;;;;;;;2.13;1.25;;;;;;;;;;5110117;28;20413;-70
2021/07/03 03:11:16;;;;;;;2.05;1.20;;;;;;;;;;5110333;28;20024;-70
2021/07/03 03:13:42;;;;;;;3.00;1.02;;;;;;;;;;5110367;28;20023;-70
2021/07/03 03:16:08;;;;;;;4.40;1.52;;;;;;;;;;5109866;28;20024;-70
2021/07/03 03:18:34;;;;;;;5.50;1.35;;;;;;;;;;5110274;28;20089;-70
2021/07/03 03:21:01;;;;;;;2.45;1.30;;;;;;;;;;5110312;28;20098;-70
2021/07/03 03:23:27;;;;;;;3.35;1.38;;;;;;;;;;5108732;28;20150;-70
2021/07/03 03:25:54;;;;;;;1.95;1.10;;;;;;;;;;5110105;28;20032;-70
2021/07/03 05:08:21;;;;;;;3.28;1.42;;;;;;;;;;5110380;27;20462;-70
2021/07/03 05:10:47;;;;;;;2.70;1.33;;;;;;;;;;5109851;28;20036;-70
2021/07/03 05:13:14;;;;;;;2.40;1.20;;;;;;;;;;5110113;28;20028;-71
2021/07/03 05:16:35;;;;;;;3.35;1.50;;;;;;;;;;5110581;27;20451;-71
2021/07/03 05:19:01;;;;;;;5.47;1.40;;;;;;;;;;5110112;28;20028;-70
2021/07/03 05:21:28;;;;;;;3.67;1.42;;;;;;;;;;5096127;28;20521;-71
2021/07/03 05:23:54;;;;;;;5.80;1.77;;;;;;;;;;5090084;28;20082;-71
2021/07/03 05:26:20;;;;;;;4.35;1.70;;;;;;;;;;5088472;28;20023;-70
2021/07/03 05:28:46;;;;;;;6.50;2.53;;;;;;;;;;5090030;28;20468;-70
2021/07/03 05:31:12;;;;;;;4.60;2.30;;;;;;;;;;5089855;28;20020;-70
2021/07/03 05:33:39;;;;;;;2.67;1.70;;;;;;;;;;5087336;28;20111;-70
2021/07/03 05:36:05;;;;;;;2.55;1.45;;;;;;;;;;5088495;28;20176;-71
2021/07/03 05:38:39;;;;;;;3.95;1.70;;;;;;;;;;5089850;28;20024;-71
2021/07/03 05:41:05;;;;;;;3.45;1.80;;;;;;;;;;5087805;28;20036;-71
2021/07/03 05:43:32;;;;;;;3.10;1.40;;;;;;;;;;5086507;28;20384;-71
2021/07/03 05:45:58;;;;;;;5.07;2.10;;;;;;;;;;5087209;28;20024;-72
2021/07/03 05:48:24;;;;;;;2.10;1.40;;;;;;;;;;5088008;28;20032;-72
2021/07/03 05:50:51;;;;;;;4.10;2.13;;;;;;;;;;5087542;28;20043;-72
2021/07/03 05:53:17;;;;;;;3.65;1.52;;;;;;;;;;5087174;28;20020;-72
2021/07/03 05:57:32;;;;;;;6.45;2.00;;;;;;;;;;5069458;28;20787;-70
2021/07/03 05:59:58;;;;;;;4.78;1.33;;;;;;;;;;5069554;28;20025;-70
2021/07/03 06:02:25;;;;;;;9.05;2.30;;;;;;;;;;5069872;28;20044;-70
2021/07/03 06:04:51;;;;;;;8.07;1.90;;;;;;;;;;5068651;28;20036;-71
2021/07/03 06:08:26;;;;;;;3.67;1.75;;;;;;;;;;5110297;27;20826;-71
2021/07/03 06:10:53;;;;;;;4.95;1.80;;;;;;;;;;5126234;28;20032;-71
2021/07/03 06:13:19;;;;;;;5.38;1.60;;;;;;;;;;5110306;28;20055;-72
2021/07/03 06:16:15;;;;;;;3.42;1.58;;;;;;;;;;5069970;28;20399;-72
2021/07/03 06:18:41;;;;;;;3.33;1.60;;;;;;;;;;5069965;28;20439;-71
2021/07/03 06:21:07;;;;;;;3.28;1.35;;;;;;;;;;5069565;28;20063;-73
2021/07/03 06:23:33;;;;;;;4.65;1.80;;;;;;;;;;5069907;28;20051;-71
2021/07/03 06:26:00;;;;;;;2.10;1.27;;;;;;;;;;5069904;28;20028;-72
2021/07/03 06:28:27;;;;;;;10.63;1.65;;;;;;;;;;5069786;28;20021;-71
2021/07/03 06:30:54;;;;;;;3.53;1.40;;;;;;;;;;5069863;28;20020;-72
2021/07/03 06:33:20;;;;;;;4.72;1.83;;;;;;;;;;5069951;28;20032;-72
2021/07/03 06:35:46;;;;;;;3.72;1.45;;;;;;;;;;5069181;28;20108;-71
2021/07/03 06:38:29;;;;;;;8.35;2.00;;;;;;;;;;5069823;28;20407;-72
2021/07/03 06:40:55;;;;;;;2.10;1.23;;;;;;;;;;5069907;28;20055;-71
2021/07/03 06:43:21;;;;;;;2.00;1.20;;;;;;;;;;5069384;28;20025;-72
2021/07/03 06:47:30;;;;;;;3.50;1.55;;;;;;;;;;5070180;28;20411;-72
2021/07/03 06:49:57;;;;;;;3.35;1.50;;;;;;;;;;5069706;28;20070;-72
2021/07/03 06:52:23;;;;;;;3.92;1.80;;;;;;;;;;5069814;28;20503;-72
2021/07/03 06:57:10;;;;;;;3.05;1.38;;;;;;;;;;5090017;27;20814;-71
2021/07/03 07:00:07;;;;;;;2.53;1.33;;;;;;;;;;5110450;27;20381;-70
2021/07/03 07:03:24;;;;;;;5.35;1.70;;;;;;;;;;5110130;27;20713;-71
2021/07/03 07:06:36;;;;;;;6.90;1.85;;;;;;;;;;5090065;27;20475;-72
2021/07/03 07:09:02;;;;;;;3.53;1.50;;;;;;;;;;5089029;28;20373;-72
2021/07/03 07:13:58;;;;;;;1.83;1.20;;;;;;;;;;5069852;28;20407;-73
2021/07/03 07:16:24;;;;;;;3.80;1.80;;;;;;;;;;5069798;28;20031;-72
2021/07/03 07:19:26;;;;;;;2.15;1.40;;;;;;;;;;5089913;27;20401;-74
2021/07/03 07:21:52;;;;;;;3.10;1.40;;;;;;;;;;5090109;28;20131;-72
2021/07/03 07:24:18;;;;;;;3.00;1.20;;;;;;;;;;5088473;28;20514;-72
2021/07/03 07:26:46;;;;;;;2.88;1.40;;;;;;;;;;5090054;28;20051;-72
2021/07/03 07:29:12;;;;;;;4.15;1.45;;;;;;;;;;5090316;28;20078;-72
2021/07/03 07:33:51;;;;;;;2.50;1.30;;;;;;;;;;5090301;27;20409;-72
2021/07/03 07:36:17;;;;;;;2.95;1.50;;;;;;;;;;5090163;28;20480;-73
2021/07/03 07:38:43;;;;;;;1.52;1.00;;;;;;;;;;5088348;28;20032;-73
2021/07/03 07:41:09;;;;;;;2.90;1.50;;;;;;;;;;5088796;28;20024;-73
2021/07/03 07:43:36;;;;;;;5.60;1.55;;;;;;;;;;5089991;28;20056;-72
2021/07/03 07:47:13;;;;;;;3.05;1.20;;;;;;;;;;5089506;28;20754;-72
2021/07/03 07:49:39;;;;;;;4.60;1.77;;;;;;;;;;5090298;28;20032;-73
2021/07/03 07:52:06;;;;;;;2.45;1.58;;;;;;;;;;5090159;28;20025;-73
2021/07/03 07:54:32;;;;;;;1.27;0.90;;;;;;;;;;5089643;28;20024;-72
2021/07/03 07:56:59;;;;;;;3.05;1.40;;;;;;;;;;5071822;28;20024;-73
2021/07/03 07:59:28;;;;;;;2.50;1.20;;;;;;;;;;5089566;28;20032;-73
2021/07/03 08:01:55;;;;;;;1.48;1.10;;;;;;;;;;5089909;28;20074;-72
2021/07/03 08:04:21;;;;;;;8.30;1.60;;;;;;;;;;5089789;28;20074;-72
2021/07/03 08:06:47;;;;;;;3.00;1.70;;;;;;;;;;5071317;28;20504;-73
2021/07/03 08:09:13;;;;;;;10.95;1.63;;;;;;;;;;5071820;28;20021;-72
2021/07/03 08:11:39;;;;;;;1.83;1.13;;;;;;;;;;5089804;28;20093;-73
2021/07/03 08:14:06;;;;;;;1.35;1.00;;;;;;;;;;5089545;28;20021;-72
2021/07/03 08:16:32;;;;;;;4.57;1.02;;;;;;;;;;5071469;28;20031;-72
2021/07/03 08:18:58;;;;;;;2.75;1.20;;;;;;;;;;5089542;28;20034;-72
2021/07/03 08:21:24;;;;;;;3.58;1.30;;;;;;;;;;5089217;28;20012;-72
2021/07/03 08:23:52;;;;;;;7.00;2.00;;;;;;;;;;5089418;28;20028;-72
2021/07/03 08:26:18;;;;;;;2.67;1.27;;;;;;;;;;5071214;28;20028;-73
2021/07/03 08:28:44;;;;;;;2.80;1.27;;;;;;;;;;5071085;28;20028;-72
2021/07/03 08:31:10;;;;;;;4.53;1.88;;;;;;;;;;5089770;28;20030;-72
2021/07/03 08:33:36;;;;;;;5.35;1.65;;;;;;;;;;5089260;28;20024;-70
2021/07/03 08:36:03;;;;;;;3.97;1.40;;;;;;;;;;5088792;28;20558;-72
2021/07/03 08:38:29;;;;;;;3.85;1.40;;;;;;;;;;5089229;28;20043;-72
2021/07/03 08:40:56;;;;;;;3.38;1.65;;;;;;;;;;5089059;28;20086;-71
2021/07/03 08:43:22;;;;;;;6.55;1.90;;;;;;;;;;5088726;28;20024;-72
2021/07/03 08:45:48;;;;;;;4.32;1.70;;;;;;;;;;5088941;28;20587;-72
2021/07/03 08:48:19;;;;;;;2.60;1.38;;;;;;;;;;5089297;28;20025;-72
2021/07/03 08:50:45;;;;;;;2.22;1.30;;;;;;;;;;5088647;28;20050;-72
2021/07/03 08:53:11;;;;;;;3.22;1.90;;;;;;;;;;5070676;28;20073;-72
2021/07/03 08:55:37;;;;;;;3.90;1.73;;;;;;;;;;5088574;28;20020;-72
2021/07/03 08:58:05;;;;;;;3.50;2.00;;;;;;;;;;5076857;28;20095;-72
2021/07/03 09:00:33;;;;;;;3.22;2.08;;;;;;;;;;5075290;28;20104;-74
2021/07/03 09:02:59;;;;;;;3.90;2.03;;;;;;;;;;5074874;28;20029;-72
2021/07/03 09:05:31;;;;;;;4.63;2.30;;;;;;;;;;5075196;28;20028;-72
2021/07/03 09:07:58;;;;;;;4.40;2.20;;;;;;;;;;5057344;28;20020;-72
2021/07/03 09:10:24;;;;;;;3.63;1.88;;;;;;;;;;5074727;28;20109;-72
2021/07/03 09:12:52;;;;;;;2.88;1.63;;;;;;;;;;5075562;28;20028;-72
2021/07/03 09:15:20;;;;;;;3.33;1.70;;;;;;;;;;5057057;28;20434;-72
2021/07/03 09:17:46;;;;;;;6.03;2.13;;;;;;;;;;5074681;28;20032;-72
2021/07/03 09:20:12;;;;;;;3.53;1.90;;;;;;;;;;5074995;28;20496;-72
2021/07/03 09:22:38;;;;;;;4.95;2.28;;;;;;;;;;5056829;28;20048;-72
2021/07/03 09:25:20;;;;;;;5.78;2.55;;;;;;;;;;5074532;28;20535;-72
2021/07/03 09:27:47;;;;;;;4.30;2.08;;;;;;;;;;5057030;28;20036;-72
2021/07/03 09:30:15;;;;;;;4.25;1.95;;;;;;;;;;5074755;28;20025;-71
2021/07/03 09:32:48;;;;;;;3.85;2.50;;;;;;;;;;5074304;28;20021;-71
2021/07/03 09:35:15;;;;;;;3.50;2.08;;;;;;;;;;5074687;28;20523;-71
2021/07/03 09:37:41;;;;;;;8.77;2.70;;;;;;;;;;5074622;28;20052;-71
2021/07/03 09:40:08;;;;;;;7.28;2.90;;;;;;;;;;5075137;28;20091;-71
2021/07/03 09:42:35;;;;;;;4.05;2.70;;;;;;;;;;5074639;28;20059;-72
2021/07/03 09:45:02;;;;;;;4.20;2.70;;;;;;;;;;5073760;28;20148;-72
2021/07/03 09:47:28;;;;;;;5.43;2.92;;;;;;;;;;5074576;28;20031;-72
2021/07/03 09:50:09;;;;;;;5.65;3.22;;;;;;;;;;5056472;28;20028;-72
2021/07/03 09:52:36;;;;;;;8.38;3.35;;;;;;;;;;5055930;28;20078;-71
2021/07/03 09:55:06;;;;;;;5.45;3.10;;;;;;;;;;5074238;28;20027;-72
2021/07/03 09:57:40;;;;;;;5.30;3.40;;;;;;;;;;5074282;28;20046;-72
2021/07/03 10:00:09;;;;;;;4.70;2.70;;;;;;;;;;5073815;28;20024;-71
2021/07/03 10:02:36;;;;;;;7.18;3.45;;;;;;;;;;5056180;28;20017;-72
2021/07/03 10:05:02;;;;;;;5.47;3.30;;;;;;;;;;5056105;28;20070;-72
2021/07/03 10:07:35;;;;;;;6.13;3.50;;;;;;;;;;5055771;28;20025;-73
2021/07/03 10:10:10;;;;;;;5.50;3.05;;;;;;;;;;5073046;28;20020;-72
2021/07/03 10:12:38;;;;;;;6.32;3.33;;;;;;;;;;5055922;28;20031;-72
2021/07/03 10:15:04;;;;;;;5.40;2.92;;;;;;;;;;5073492;28;20033;-71
2021/07/03 10:17:31;;;;;;;5.45;3.13;;;;;;;;;;5073821;28;20020;-71
2021/07/03 10:19:58;;;;;;;6.47;3.55;;;;;;;;;;5073487;28;20024;-71
2021/07/03 10:22:31;;;;;;;6.00;3.42;;;;;;;;;;5073766;28;20020;-71
2021/07/03 10:24:57;;;;;;;;;;;;;;;;;;5074302;28;20028;-71
2021/07/03 10:27:26;;;;;;;5.03;3.25;;;;;;;;;;5073523;28;19991;-71
2021/07/03 10:29:54;;;;;;;5.53;3.58;;;;;;;;;;5073529;28;20066;-71
2021/07/03 10:32:30;;;;;;;5.70;3.70;;;;;;;;;;5055608;28;20365;-72
2021/07/03 10:35:13;;;;;;;4.88;3.05;;;;;;;;;;5055152;28;20031;-71
2021/07/03 10:37:40;;;;;;;7.35;3.28;;;;;;;;;;5073412;28;20032;-72
2021/07/03 10:40:15;;;;;;;7.72;3.40;;;;;;;;;;5055396;28;20468;-71
2021/07/03 10:42:42;;;;;;;6.22;3.28;;;;;;;;;;5072994;28;20074;-71
2021/07/03 10:45:09;;;;;;;4.45;2.75;;;;;;;;;;5055309;28;20055;-73
2021/07/03 10:47:35;;;;;;;5.80;2.40;;;;;;;;;;5073347;28;20031;-72
2021/07/03 10:50:02;;;;;;;7.13;2.85;;;;;;;;;;5072790;28;20029;-71
2021/07/03 10:52:38;;;;;;;5.38;2.00;;;;;;;;;;5073393;28;20017;-71
2021/07/03 10:55:04;;;;;;;7.93;2.25;;;;;;;;;;5072702;28;20506;-71
2021/07/03 10:57:30;;;;;;;12.20;2.28;;;;;;;;;;5073357;28;20095;-72
2021/07/03 11:00:05;;;;;;;6.57;2.17;;;;;;;;;;5073142;28;20033;-72
2021/07/03 11:02:32;;;;;;;2.65;1.70;;;;;;;;;;5054976;28;20387;-73
2021/07/03 11:05:01;;;;;;;3.42;2.08;;;;;;;;;;5072996;28;20029;-73
2021/07/03 11:07:31;;;;;;;3.17;2.10;;;;;;;;;;5055057;28;20361;-72
2021/07/03 11:10:10;;;;;;;2.50;1.60;;;;;;;;;;5072826;28;20017;-71
2021/07/03 11:13:03;;;;;;;5.00;1.90;;;;;;;;;;5072844;28;20024;-72
2021/07/03 11:15:29;;;;;;;4.20;2.08;;;;;;;;;;5069870;28;20051;-71
2021/07/03 11:17:56;;;;;;;3.13;1.70;;;;;;;;;;5072307;28;20407;-71
2021/07/03 11:20:33;;;;;;;7.25;2.20;;;;;;;;;;5072614;28;20047;-72
2021/07/03 11:22:59;;;;;;;3.92;2.08;;;;;;;;;;5072849;28;20028;-74
2021/07/03 11:25:33;;;;;;;4.50;2.35;;;;;;;;;;5072292;28;20178;-73
2021/07/03 11:28:17;;;;;;;3.90;2.10;;;;;;;;;;5072636;28;20436;-71
2021/07/03 11:30:45;;;;;;;3.92;2.17;;;;;;;;;;5072182;28;20043;-72
2021/07/03 11:33:11;;;;;;;7.38;2.85;;;;;;;;;;5072546;28;20025;-71
2021/07/03 11:35:45;;;;;;;5.70;2.33;;;;;;;;;;5072647;28;20036;-72
2021/07/03 11:38:12;;;;;;;4.05;2.45;;;;;;;;;;5072137;28;20021;-72
2021/07/03 11:40:40;;;;;;;3.88;2.20;;;;;;;;;;5072626;28;20020;-72
2021/07/03 11:43:07;;;;;;;3.20;2.13;;;;;;;;;;5072686;28;20020;-73
2021/07/03 11:45:34;;;;;;;2.72;1.95;;;;;;;;;;5071978;28;20040;-73
2021/07/03 11:48:10;;;;;;;7.00;2.90;;;;;;;;;;5072355;28;20051;-71
2021/07/03 11:50:41;;;;;;;7.88;2.80;;;;;;;;;;5072443;28;20021;-72
2021/07/03 11:53:09;;;;;;;3.30;2.38;;;;;;;;;;5053980;28;20028;-73
2021/07/03 11:55:41;;;;;;;3.70;2.38;;;;;;;;;;5054342;28;20480;-71
2021/07/03 11:58:10;;;;;;;3.97;2.15;;;;;;;;;;5072431;28;20032;-72
2021/07/03 12:00:37;;;;;;;3.75;2.13;;;;;;;;;;5071987;28;20024;-73
2021/07/03 12:03:04;;;;;;;3.45;2.17;;;;;;;;;;5072457;28;20380;-71
2021/07/03 12:05:33;;;;;;;3.20;2.22;;;;;;;;;;5054002;28;20032;-71
2021/07/03 12:08:03;;;;;;;3.72;2.40;;;;;;;;;;5072246;28;20044;-72
2021/07/03 12:10:38;;;;;;;3.50;2.10;;;;;;;;;;5072246;28;20028;-72
2021/07/03 12:13:05;;;;;;;4.25;2.05;;;;;;;;;;5053854;28;20089;-72
2021/07/03 12:15:32;;;;;;;4.60;2.75;;;;;;;;;;5072227;28;20024;-72
2021/07/03 12:17:59;;;;;;;3.65;2.30;;;;;;;;;;5072209;28;20078;-72
2021/07/03 12:20:25;;;;;;;4.30;2.60;;;;;;;;;;5071692;28;20074;-71
2021/07/03 12:23:05;;;;;;;3.72;2.40;;;;;;;;;;5072256;28;20383;-71
2021/07/03 12:25:32;;;;;;;5.63;2.42;;;;;;;;;;5072331;28;20037;-71
2021/07/03 12:28:00;;;;;;;4.50;2.25;;;;;;;;;;5071782;28;20483;-72
2021/07/03 12:30:27;;;;;;;5.53;2.38;;;;;;;;;;5054065;28;20020;-72
2021/07/03 12:33:01;;;;;;;3.92;2.40;;;;;;;;;;5074316;28;20020;-72
2021/07/03 12:35:32;;;;;;;5.25;2.53;;;;;;;;;;5075313;28;20032;-72
2021/07/03 12:37:59;;;;;;;3.85;2.30;;;;;;;;;;5076054;28;20086;-73
2021/07/03 12:40:26;;;;;;;3.10;2.30;;;;;;;;;;5057765;28;20029;-72
2021/07/03 12:42:58;;;;;;;8.10;2.97;;;;;;;;;;5075312;28;20055;-72
2021/07/03 12:45:24;;;;;;;4.00;2.58;;;;;;;;;;5075457;28;20056;-73
2021/07/03 12:47:51;;;;;;;4.32;2.45;;;;;;;;;;5075058;28;20028;-72
2021/07/03 12:50:22;;;;;;;4.88;3.20;;;;;;;;;;5075470;28;20099;-71
2021/07/03 12:52:48;;;;;;;19.27;3.00;;;;;;;;;;5075435;28;20036;-71
2021/07/03 12:55:14;;;;;;;3.90;2.13;;;;;;;;;;5056880;28;20488;-73
2021/07/03 12:57:42;;;;;;;3.83;2.20;;;;;;;;;;5057436;28;20360;-73
2021/07/03 13:00:08;;;;;;;6.95;2.75;;;;;;;;;;5057371;28;20033;-71
2021/07/03 13:02:35;;;;;;;7.90;2.35;;;;;;;;;;5056671;28;20101;-72
2021/07/03 13:05:01;;;;;;;4.28;2.28;;;;;;;;;;5075384;28;20082;-73
2021/07/03 13:07:27;;;;;;;3.35;1.77;;;;;;;;;;5075308;28;20035;-74
2021/07/03 13:09:54;;;;;;;4.95;2.30;;;;;;;;;;5074795;28;20098;-72
2021/07/03 13:12:20;;;;;;;3.88;2.20;;;;;;;;;;5057461;28;20040;-72
2021/07/03 13:14:47;;;;;;;3.70;1.60;;;;;;;;;;5075108;28;20583;-71
2021/07/03 13:17:13;;;;;;;4.95;2.50;;;;;;;;;;5074564;28;20287;-71
2021/07/03 13:19:39;;;;;;;5.10;1.98;;;;;;;;;;5074955;28;20024;-72
2021/07/03 13:22:06;;;;;;;2.88;1.70;;;;;;;;;;5074990;28;20502;-72
2021/07/03 13:24:32;;;;;;;2.65;1.88;;;;;;;;;;5074609;28;20104;-73
2021/07/03 13:26:58;;;;;;;3.13;1.77;;;;;;;;;;5075023;28;20039;-71
2021/07/03 13:29:24;;;;;;;2.80;1.73;;;;;;;;;;5056760;28;20047;-71
2021/07/03 13:31:50;;;;;;;2.65;1.70;;;;;;;;;;5074320;28;20095;-71
2021/07/03 13:34:17;;;;;;;4.60;2.08;;;;;;;;;;5056726;28;20017;-71
2021/07/03 13:36:43;;;;;;;3.60;2.05;;;;;;;;;;5074692;28;20028;-71
2021/07/03 13:39:11;;;;;;;2.85;1.63;;;;;;;;;;5074314;28;20503;-71
2021/07/03 13:41:37;;;;;;;2.45;1.60;;;;;;;;;;5074679;28;20358;-71
2021/07/03 13:44:04;;;;;;;4.05;2.65;;;;;;;;;;5074042;28;20492;-72
2021/07/03 13:46:30;;;;;;;2.35;1.48;;;;;;;;;;5056382;28;20060;-72
2021/07/03 13:48:56;;;;;;;2.17;1.40;;;;;;;;;;5074629;28;20028;-72
2021/07/03 13:51:22;;;;;;;4.75;2.35;;;;;;;;;;5056187;28;20024;-71
2021/07/03 13:53:49;;;;;;;3.70;1.65;;;;;;;;;;5074388;28;20023;-72
2021/07/03 13:56:15;;;;;;;7.03;2.20;;;;;;;;;;5074293;28;20100;-71
2021/07/03 13:58:41;;;;;;;3.05;1.83;;;;;;;;;;5073907;28;20016;-72
2021/07/03 14:01:08;;;;;;;2.50;1.50;;;;;;;;;;5074240;28;20044;-71
2021/07/03 14:03:35;;;;;;;2.10;1.40;;;;;;;;;;5056199;28;20025;-72
2021/07/03 14:06:01;;;;;;;2.45;1.60;;;;;;;;;;5073905;28;20039;-72
2021/07/03 14:08:27;;;;;;;2.85;1.75;;;;;;;;;;5056021;28;20086;-71
2021/07/03 14:10:53;;;;;;;2.88;1.30;;;;;;;;;;5055954;28;20031;-71
2021/07/03 14:13:19;;;;;;;2.67;1.63;;;;;;;;;;5055653;28;20069;-73
2021/07/03 14:15:46;;;;;;;3.25;1.60;;;;;;;;;;5073882;28;20537;-72
2021/07/03 14:18:12;;;;;;;2.13;1.50;;;;;;;;;;5055939;28;20029;-72
2021/07/03 14:20:38;;;;;;;5.45;2.15;;;;;;;;;;5073382;28;20515;-71
2021/07/03 14:23:04;;;;;;;6.97;1.58;;;;;;;;;;5073674;28;20017;-72
2021/07/03 14:25:31;;;;;;;1.83;1.30;;;;;;;;;;5073743;28;20051;-72
2021/07/03 14:27:57;;;;;;;3.08;1.60;;;;;;;;;;5073400;28;20044;-71
2021/07/03 14:30:23;;;;;;;2.67;1.33;;;;;;;;;;5073619;28;20178;-72
2021/07/03 14:32:50;;;;;;;4.55;1.80;;;;;;;;;;5073475;28;20113;-72
2021/07/03 14:35:16;;;;;;;2.60;1.60;;;;;;;;;;5073166;28;20024;-71
2021/07/03 14:37:42;;;;;;;2.10;1.50;;;;;;;;;;5073415;28;20032;-71
2021/07/03 14:40:09;;;;;;;2.75;1.60;;;;;;;;;;5072971;28;20028;-71
2021/07/03 14:42:35;;;;;;;2.95;1.67;;;;;;;;;;5073381;28;20380;-72
2021/07/03 14:45:01;;;;;;;3.70;1.67;;;;;;;;;;5073139;28;20041;-72
2021/07/03 14:47:27;;;;;;;5.95;1.88;;;;;;;;;;5073075;28;20055;-72
2021/07/03 14:49:54;;;;;;;2.88;1.48;;;;;;;;;;5073235;28;20070;-72
2021/07/03 14:52:20;;;;;;;2.67;1.77;;;;;;;;;;5073207;28;20572;-72
2021/07/03 14:54:47;;;;;;;2.40;1.75;;;;;;;;;;5072214;28;20462;-72
2021/07/03 14:57:13;;;;;;;2.38;1.48;;;;;;;;;;5073094;28;20480;-71
2021/07/03 14:59:39;;;;;;;4.95;2.10;;;;;;;;;;5073039;28;20071;-72
2021/07/03 15:02:06;;;;;;;11.27;2.03;;;;;;;;;;5072624;28;20052;-74
2021/07/03 15:04:33;;;;;;;4.07;1.60;;;;;;;;;;5072960;28;20025;-74
2021/07/03 15:06:59;;;;;;;2.88;1.70;;;;;;;;;;5055175;28;20123;-74
2021/07/03 15:09:26;;;;;;;6.88;1.95;;;;;;;;;;5072758;28;20021;-73
2021/07/03 15:11:52;;;;;;;3.47;1.52;;;;;;;;;;5072888;28;20032;-72
2021/07/03 15:14:18;;;;;;;4.63;1.90;;;;;;;;;;5054912;28;20020;-73
2021/07/03 15:16:44;;;;;;;5.03;1.60;;;;;;;;;;5072422;28;20028;-72
2021/07/03 15:19:10;;;;;;;4.57;2.22;;;;;;;;;;5072767;28;20087;-72
2021/07/03 15:21:37;;;;;;;3.70;2.03;;;;;;;;;;5072831;28;20051;-73
2021/07/03 15:24:03;;;;;;;3.08;2.00;;;;;;;;;;5054492;28;20499;-74
2021/07/03 15:26:29;;;;;;;3.20;1.80;;;;;;;;;;5072767;28;20060;-75
2021/07/03 15:28:55;;;;;;;3.15;2.00;;;;;;;;;;5054663;28;20043;-74
2021/07/03 15:31:22;;;;;;;8.35;1.80;;;;;;;;;;5072290;28;20024;-72
2021/07/03 15:33:48;;;;;;;5.22;2.30;;;;;;;;;;5072555;28;20465;-75
2021/07/03 15:36:14;;;;;;;4.05;2.28;;;;;;;;;;5072561;28;20033;-73
2021/07/03 15:38:40;;;;;;;4.75;2.20;;;;;;;;;;5072151;28;20051;-72
2021/07/03 15:41:07;;;;;;;3.78;2.13;;;;;;;;;;5072480;28;20085;-72
2021/07/03 15:43:34;;;;;;;3.90;2.22;;;;;;;;;;5072276;28;20556;-72
2021/07/03 15:46:01;;;;;;;3.45;1.80;;;;;;;;;;5072482;28;20055;-73
2021/07/03 15:48:27;;;;;;;4.75;2.28;;;;;;;;;;5072450;28;20017;-75
2021/07/03 15:50:53;;;;;;;5.03;2.22;;;;;;;;;;5072093;28;20028;-73
2021/07/03 15:53:20;;;;;;;4.13;2.30;;;;;;;;;;5072416;28;20025;-74
2021/07/03 15:55:46;;;;;;;4.18;2.30;;;;;;;;;;5072432;28;20553;-73
2021/07/03 15:58:13;;;;;;;5.63;2.30;;;;;;;;;;5071912;28;20029;-73
2021/07/03 16:00:39;;;;;;;5.03;2.47;;;;;;;;;;5072303;28;20085;-73
2021/07/03 16:03:05;;;;;;;4.47;2.45;;;;;;;;;;5072390;28;20024;-73
2021/07/03 16:05:32;;;;;;;3.72;2.05;;;;;;;;;;5054109;28;20028;-72
2021/07/03 16:07:58;;;;;;;3.58;2.38;;;;;;;;;;5075039;28;20112;-72
2021/07/03 16:10:24;;;;;;;4.78;2.80;;;;;;;;;;5076330;28;20028;-73
2021/07/03 16:12:52;;;;;;;5.68;3.30;;;;;;;;;;5075876;28;20029;-73
2021/07/03 16:15:18;;;;;;;8.20;3.58;;;;;;;;;;5076211;28;20436;-74
2021/07/03 16:17:47;;;;;;;4.47;3.17;;;;;;;;;;5076246;28;20016;-73
2021/07/03 16:20:14;;;;;;;7.63;3.35;;;;;;;;;;5075765;28;20016;-75
2021/07/03 16:22:40;;;;;;;7.40;3.70;;;;;;;;;;5075987;28;20100;-72
2021/07/03 16:25:07;;;;;;;5.65;3.60;;;;;;;;;;5076067;28;20020;-71
2021/07/03 16:27:34;;;;;;;5.47;3.42;;;;;;;;;;5075670;28;20073;-70
2021/07/03 16:30:00;;;;;;;5.47;3.33;;;;;;;;;;5075866;28;20059;-71
2021/07/03 16:32:26;;;;;;;5.40;3.33;;;;;;;;;;5076037;28;20020;-71
2021/07/03 16:34:53;;;;;;;4.80;3.30;;;;;;;;;;5075333;28;20036;-70
2021/07/03 16:37:20;;;;;;;4.70;2.97;;;;;;;;;;5075724;28;20028;-71
2021/07/03 16:39:46;;;;;;;10.27;3.10;;;;;;;;;;5075345;28;20074;-71
2021/07/03 16:42:12;;;;;;;9.48;3.47;;;;;;;;;;5075728;28;20058;-72
2021/07/03 16:44:38;;;;;;;5.30;3.10;;;;;;;;;;5057471;28;20021;-71
2021/07/03 16:47:05;;;;;;;6.10;3.20;;;;;;;;;;5075495;28;20373;-71
2021/07/03 16:49:31;;;;;;;4.80;2.97;;;;;;;;;;5075643;28;20472;-72
2021/07/03 16:51:58;;;;;;;5.20;3.20;;;;;;;;;;5075567;28;20032;-72
2021/07/03 16:54:24;;;;;;;7.90;3.40;;;;;;;;;;5057133;28;20104;-72
2021/07/03 16:56:51;;;;;;;6.03;3.40;;;;;;;;;;5057473;28;20056;-72